Time;durP1;ratioP1;P1;durP2;ratioP2;P2;SDS_P1;SDS_P2;PMS_P1;PMS_P2;Temp;Humidity;BMP_temperature;BMP_pressure;BME280_temperature;BME280_humidity;BME280_pressure;Samples;Min_cycle;Max_cycle;Signal;HPM_P1;HPM_P2
2023/08/29 05:41:06;;;;;;;7.38;4.05;;;;;;;;;;5013662;28;1314102;-55
2023/08/29 05:43:31;;;;;;;7.20;4.47;;;22.60;99.90;;;;;;5033191;28;20025;-53
2023/08/29 05:45:57;;;;;;;10.35;5.88;;;22.50;99.90;;;;;;5033349;28;20040;-55
2023/08/29 05:48:23;;;;;;;10.25;5.32;;;;;;;;;;5033490;28;20025;-53
2023/08/29 05:50:49;;;;;;;6.00;3.03;;;;;;;;;;5033175;28;20029;-55
2023/08/29 05:53:16;;;;;;;5.30;3.38;;;;;;;;;;5033022;28;20116;-57
2023/08/29 05:55:42;;;;;;;8.05;4.40;;;;;;;;;;5033172;28;20029;-53
2023/08/29 05:58:08;;;;;;;6.88;4.82;;;;;;;;;;5033222;28;20034;-57
2023/08/29 06:00:35;;;;;;;7.30;3.10;;;;;;;;;;5031334;28;20065;-55
2023/08/29 06:03:05;;;;;;;5.38;2.72;;;;;;;;;;5033103;28;20037;-52
2023/08/29 06:05:41;;;;;;;4.53;3.03;;;;;;;;;;5033235;28;20076;-53
2023/08/29 06:08:07;;;;;;;13.13;4.18;;;;;;;;;;5033325;28;20029;-55
2023/08/29 06:10:33;;;;;;;5.32;3.70;;;21.80;99.90;;;;;;5033090;28;20041;-53
2023/08/29 06:12:59;;;;;;;7.13;3.90;;;21.70;99.90;;;;;;5032975;28;20037;-57
2023/08/29 06:15:25;;;;;;;8.27;2.80;;;;;;;;;;5032892;28;20025;-56
2023/08/29 06:17:51;;;;;;;9.05;4.00;;;;;;;;;;5031225;28;20061;-57
2023/08/29 06:20:17;;;;;;;8.35;3.15;;;21.40;99.90;;;;;;5033255;28;20056;-54
2023/08/29 06:22:44;;;;;;;5.05;2.95;;;;;;;;;;5031225;28;20037;-55
2023/08/29 06:25:10;;;;;;;8.45;3.35;;;21.20;99.90;;;;;;5032901;28;20044;-54
2023/08/29 06:27:36;;;;;;;8.45;3.72;;;;;;;;;;5032733;28;20021;-55
2023/08/29 06:30:03;;;;;;;7.57;3.10;;;21.10;99.90;;;;;;5033181;28;20113;-52
2023/08/29 06:32:29;;;;;;;4.10;1.25;;;21.20;99.90;;;;;;5033033;28;20021;-56
2023/08/29 06:34:55;;;;;;;3.65;2.10;;;21.00;99.90;;;;;;5032824;28;20026;-56
2023/08/29 06:37:21;;;;;;;6.55;3.45;;;20.70;99.90;;;;;;5032800;28;20034;-54
2023/08/29 06:39:47;;;;;;;5.72;3.05;;;20.80;99.90;;;;;;5032803;28;20040;-54
2023/08/29 06:42:13;;;;;;;8.52;2.63;;;20.90;99.90;;;;;;4997789;28;20132;-54
2023/08/29 06:44:39;;;;;;;6.13;3.42;;;20.70;99.90;;;;;;5032625;28;20079;-53
2023/08/29 06:47:05;;;;;;;4.53;2.30;;;20.70;99.90;;;;;;5032784;28;20052;-53
2023/08/29 06:49:30;;;;;;;13.68;3.30;;;20.50;99.90;;;;;;5017388;28;20429;-55
2023/08/29 06:51:57;;;;;;;7.72;2.55;;;;;;;;;;5036817;28;20033;-57
2023/08/29 06:54:23;;;;;;;6.68;2.00;;;;;;;;;;5036429;28;20116;-56
2023/08/29 06:56:49;;;;;;;15.40;2.90;;;;;;;;;;5036156;28;20087;-54
2023/08/29 06:59:15;;;;;;;6.82;2.47;;;;;;;;;;5036100;28;20029;-54
2023/08/29 07:01:42;;;;;;;6.13;2.25;;;;;;;;;;5036326;28;20079;-56
2023/08/29 07:04:11;;;;;;;5.28;2.20;;;20.50;99.90;;;;;;5036388;28;20059;-54
2023/08/29 07:06:37;;;;;;;7.32;3.08;;;20.50;99.90;;;;;;5035872;28;20734;-55
2023/08/29 07:09:04;;;;;;;5.07;2.80;;;20.40;99.90;;;;;;5036043;28;20025;-55
2023/08/29 07:11:30;;;;;;;7.82;2.88;;;20.50;99.90;;;;;;5036369;28;20062;-52
2023/08/29 07:13:55;;;;;;;10.63;3.72;;;20.70;99.90;;;;;;5036160;28;20044;-52
2023/08/29 07:16:22;;;;;;;4.88;2.72;;;;;;;;;;5035805;28;20520;-55
2023/08/29 07:18:48;;;;;;;6.25;3.05;;;;;;;;;;5035833;28;20083;-53
2023/08/29 07:21:14;;;;;;;7.05;2.67;;;;;;;;;;5033884;28;20480;-56
2023/08/29 07:23:40;;;;;;;4.53;2.70;;;21.30;99.90;;;;;;5035649;28;20025;-53
2023/08/29 07:26:05;;;;;;;5.28;2.47;;;21.40;99.90;;;;;;5000738;28;20374;-55
2023/08/29 07:28:32;;;;;;;5.28;2.50;;;;;;;;;;5035572;28;20036;-55
2023/08/29 07:30:58;;;;;;;6.47;3.35;;;21.40;99.90;;;;;;5033873;28;20092;-53
2023/08/29 07:33:25;;;;;;;8.35;3.03;;;;;;;;;;5035847;28;20037;-55
2023/08/29 07:35:50;;;;;;;7.50;2.58;;;22.70;99.90;;;;;;5035496;28;20025;-51
2023/08/29 07:38:17;;;;;;;6.28;2.83;;;22.80;99.90;;;;;;5035483;28;20080;-53
2023/08/29 07:40:46;;;;;;;4.72;2.80;;;;;;;;;;5039843;28;20075;-55
2023/08/29 07:43:13;;;;;;;8.18;3.00;;;23.00;99.90;;;;;;5075360;28;20047;-52
2023/08/29 07:45:40;;;;;;;8.95;2.63;;;;;;;;;;5075550;28;20040;-56
2023/08/29 07:48:05;;;;;;;7.10;2.50;;;23.00;99.90;;;;;;5075576;28;20028;-54
2023/08/29 07:50:31;;;;;;;5.82;3.00;;;23.00;99.90;;;;;;5056735;28;20099;-53
2023/08/29 07:52:57;;;;;;;7.13;2.35;;;23.10;99.90;;;;;;5075141;28;20108;-54
2023/08/29 07:55:23;;;;;;;5.78;2.00;;;23.10;99.90;;;;;;5075504;28;20413;-57
2023/08/29 07:57:50;;;;;;;3.72;2.10;;;;;;;;;;5075051;28;20107;-54
2023/08/29 08:00:17;;;;;;;3.38;1.90;;;22.70;99.90;;;;;;5074425;28;20029;-53
2023/08/29 08:02:44;;;;;;;5.97;2.15;;;22.60;99.90;;;;;;5074917;28;20380;-53
2023/08/29 08:05:15;;;;;;;6.68;2.40;;;22.90;99.90;;;;;;5074703;28;20035;-52
2023/08/29 08:07:43;;;;;;;3.65;2.10;;;22.80;99.90;;;;;;5074948;28;20036;-54
2023/08/29 08:10:12;;;;;;;5.35;2.40;;;22.90;99.90;;;;;;5074507;28;20043;-52
2023/08/29 08:12:39;;;;;;;4.50;2.58;;;22.60;99.90;;;;;;5074493;28;20043;-54
2023/08/29 08:15:07;;;;;;;5.43;2.60;;;22.70;99.90;;;;;;5071752;28;20058;-55
2023/08/29 08:17:34;;;;;;;6.60;2.53;;;22.90;99.90;;;;;;5074679;28;20044;-54
2023/08/29 08:20:00;;;;;;;4.15;2.08;;;;;;;;;;5074487;28;20024;-53
2023/08/29 08:22:26;;;;;;;5.32;2.22;;;23.30;99.90;;;;;;5074309;28;20060;-53
2023/08/29 08:24:52;;;;;;;4.50;2.35;;;;;;;;;;5055939;28;20125;-52
2023/08/29 08:27:18;;;;;;;6.78;1.88;;;24.00;99.90;;;;;;5074418;28;20020;-55
2023/08/29 08:29:45;;;;;;;6.50;2.08;;;24.20;99.90;;;;;;5074666;28;20035;-53
2023/08/29 08:32:10;;;;;;;6.78;2.08;;;24.10;99.90;;;;;;5074134;28;20040;-55
2023/08/29 08:34:36;;;;;;;5.35;2.00;;;24.40;99.90;;;;;;5074106;28;20028;-55
2023/08/29 08:37:02;;;;;;;7.28;1.90;;;24.30;99.90;;;;;;5055736;28;20036;-51
2023/08/29 08:39:31;;;;;;;4.00;2.05;;;;;;;;;;5074335;28;20063;-55
2023/08/29 08:41:57;;;;;;;6.88;2.08;;;;;;;;;;5073768;28;20087;-53
2023/08/29 08:44:25;;;;;;;6.88;2.20;;;;;;;;;;5074011;28;20103;-52
2023/08/29 08:46:53;;;;;;;7.90;2.83;;;;;;;;;;5076504;28;20059;-50
2023/08/29 08:49:20;;;;;;;7.57;2.15;;;;;;;;;;5083362;28;20028;-55
2023/08/29 08:51:49;;;;;;;4.95;2.53;;;25.70;99.90;;;;;;5085475;28;20051;-51
2023/08/29 08:54:15;;;;;;;3.72;2.53;;;25.50;99.90;;;;;;5064548;28;20479;-53
2023/08/29 08:56:42;;;;;;;4.82;2.10;;;;;;;;;;5044113;28;20041;-55
2023/08/29 08:59:09;;;;;;;4.93;3.00;;;25.70;99.90;;;;;;5079261;28;20020;-51
2023/08/29 09:01:35;;;;;;;6.45;2.25;;;;;;;;;;5082156;28;20032;-54
2023/08/29 09:04:01;;;;;;;6.50;2.92;;;;;;;;;;5093890;28;20077;-54
2023/08/29 09:06:27;;;;;;;5.75;3.00;;;26.60;99.90;;;;;;5093883;28;20050;-52
2023/08/29 09:08:56;;;;;;;11.38;5.10;;;;;;;;;;5090438;28;20603;-52
2023/08/29 09:11:23;;;;;;;8.25;4.35;;;;;;;;;;5093494;28;20432;-51
2023/08/29 09:13:49;;;;;;;14.07;4.70;;;27.10;99.90;;;;;;5093798;28;20039;-55
2023/08/29 09:16:21;;;;;;;5.85;3.17;;;;;;;;;;5093613;28;20391;-52
2023/08/29 09:18:50;;;;;;;10.65;5.72;;;27.50;99.90;;;;;;5094049;28;20043;-56
2023/08/29 09:21:23;;;;;;;8.27;4.05;;;27.60;99.90;;;;;;5093958;28;20047;-56
2023/08/29 09:23:50;;;;;;;6.03;3.00;;;27.30;99.90;;;;;;5093579;28;20056;-55
2023/08/29 09:26:16;;;;;;;10.10;3.05;;;26.70;99.90;;;;;;5093711;28;20032;-54
2023/08/29 09:28:42;;;;;;;6.20;2.92;;;27.30;99.90;;;;;;5093465;28;20032;-55
2023/08/29 09:31:09;;;;;;;4.80;2.33;;;27.30;99.90;;;;;;5041687;28;20032;-55
2023/08/29 09:33:36;;;;;;;6.57;2.50;;;27.00;99.90;;;;;;5058205;28;20052;-54
2023/08/29 09:36:04;;;;;;;5.68;2.63;;;26.60;99.90;;;;;;5093627;28;20024;-53
2023/08/29 09:38:34;;;;;;;3.83;2.50;;;26.60;99.90;;;;;;5093510;28;20046;-55
2023/08/29 09:41:01;;;;;;;5.18;2.65;;;26.30;99.90;;;;;;5093104;28;20064;-54
2023/08/29 09:43:28;;;;;;;6.45;2.80;;;26.50;99.90;;;;;;5093308;28;20039;-53
2023/08/29 09:45:55;;;;;;;6.00;2.92;;;26.40;99.90;;;;;;5074537;28;20483;-57
2023/08/29 09:48:22;;;;;;;4.35;2.50;;;26.30;99.90;;;;;;5054735;28;20040;-54
2023/08/29 09:50:49;;;;;;;7.35;2.90;;;26.10;99.90;;;;;;5078170;28;20029;-52
2023/08/29 09:53:17;;;;;;;7.72;3.25;;;26.20;99.90;;;;;;5073476;28;20081;-55
2023/08/29 09:55:48;;;;;;;7.95;5.15;;;26.60;99.90;;;;;;5073138;28;20467;-55
2023/08/29 09:58:16;;;;;;;11.00;9.77;;;26.60;99.90;;;;;;5073044;28;20526;-53
2023/08/29 10:00:42;;;;;;;8.20;7.00;;;27.00;99.90;;;;;;5054353;28;20128;-51
2023/08/29 10:03:09;;;;;;;27.00;8.88;;;27.30;99.90;;;;;;5073094;28;20384;-55
2023/08/29 10:05:36;;;;;;;7.10;5.05;;;;;;;;;;5072977;28;20033;-52
2023/08/29 10:08:11;;;;;;;14.00;12.68;;;27.50;99.90;;;;;;5072899;28;20032;-55
2023/08/29 10:10:41;;;;;;;14.15;11.50;;;27.90;99.90;;;;;;5073250;28;20025;-51
2023/08/29 10:13:08;;;;;;;9.18;7.28;;;;;;;;;;5073283;28;20045;-54
2023/08/29 10:15:35;;;;;;;20.02;8.00;;;;;;;;;;5073175;28;20063;-55
2023/08/29 10:18:02;;;;;;;19.25;11.57;;;;;;;;;;5037763;28;20098;-54
2023/08/29 10:20:28;;;;;;;6.10;2.45;;;;;;;;;;5072835;28;20056;-54
2023/08/29 10:22:55;;;;;;;18.45;6.10;;;;;;;;;;5082357;28;20032;-54
2023/08/29 10:25:21;;;;;;;5.57;2.53;;;;;;;;;;5085902;28;20111;-52
2023/08/29 10:27:49;;;;;;;5.63;2.55;;;28.90;99.90;;;;;;5087796;28;20477;-56
2023/08/29 10:30:15;;;;;;;6.00;2.33;;;;;;;;;;5097090;28;20064;-56
2023/08/29 10:32:43;;;;;;;20.33;6.25;;;;;;;;;;5061468;28;20476;-53
2023/08/29 10:35:20;;;;;;;4.13;2.33;;;;;;;;;;5097246;28;20028;-54
2023/08/29 10:37:50;;;;;;;4.18;2.13;;;;;;;;;;5096698;28;20107;-54
2023/08/29 10:40:17;;;;;;;6.55;4.13;;;;;;;;;;5096864;28;20036;-55
2023/08/29 10:43:00;;;;;;;5.70;2.60;;;30.90;99.90;;;;;;5096563;28;20490;-52
2023/08/29 10:45:48;;;;;;;13.85;6.88;;;30.40;97.80;;;;;;5097150;28;20157;-53
2023/08/29 10:48:22;;;;;;;5.25;3.22;;;30.10;98.70;;;;;;5096577;28;20042;-53
2023/08/29 10:51:08;;;;;;;7.93;5.25;;;30.10;98.30;;;;;;5096436;28;20055;-53
2023/08/29 10:53:48;;;;;;;23.50;20.02;;;30.30;99.00;;;;;;5096508;28;20043;-53
2023/08/29 10:56:15;;;;;;;66.10;20.80;;;30.50;98.70;;;;;;5096964;28;20030;-54
2023/08/29 10:58:42;;;;;;;11.57;6.45;;;30.50;98.30;;;;;;5096649;28;20409;-53
2023/08/29 11:01:30;;;;;;;4.35;2.63;;;;;;;;;;5096280;28;20780;-54
2023/08/29 11:04:03;;;;;;;3.45;2.10;;;31.00;97.40;;;;;;5096305;28;20036;-55
2023/08/29 11:06:54;;;;;;;10.27;6.53;;;30.60;97.20;;;;;;5096775;28;20498;-52
2023/08/29 11:09:21;;;;;;;5.80;3.40;;;30.80;98.50;;;;;;5060790;28;20088;-51
2023/08/29 11:12:10;;;;;;;7.60;4.15;;;30.80;98.70;;;;;;5060792;28;20044;-53
2023/08/29 11:14:50;;;;;;;5.43;3.28;;;;;;;;;;5096094;28;20063;-53
2023/08/29 11:17:22;;;;;;;6.70;3.42;;;31.10;99.90;;;;;;5096306;28;20032;-55
2023/08/29 11:19:52;;;;;;;6.90;3.63;;;31.40;98.80;;;;;;5096120;28;20433;-55
2023/08/29 11:22:19;;;;;;;4.22;2.63;;;;;;;;;;5096201;28;20055;-53
2023/08/29 11:24:45;;;;;;;6.10;2.85;;;31.60;99.90;;;;;;5095839;28;20036;-54
2023/08/29 11:27:15;;;;;;;4.68;2.70;;;31.40;99.30;;;;;;5060483;28;20046;-54
2023/08/29 11:29:42;;;;;;;4.18;2.78;;;;;;;;;;5096196;28;20036;-52
2023/08/29 11:32:08;;;;;;;8.27;3.03;;;;;;;;;;5095954;28;20157;-53
2023/08/29 11:34:35;;;;;;;5.88;3.20;;;;;;;;;;5095448;28;20039;-54
2023/08/29 11:37:01;;;;;;;6.90;3.55;;;33.20;99.30;;;;;;5095598;28;20036;-51
2023/08/29 11:39:27;;;;;;;6.68;3.25;;;33.30;98.90;;;;;;5095974;28;20471;-54
2023/08/29 11:41:54;;;;;;;5.13;3.25;;;33.40;98.60;;;;;;5095231;28;20052;-59
2023/08/29 11:44:20;;;;;;;4.88;2.78;;;32.90;98.30;;;;;;5095770;28;20035;-55
2023/08/29 11:46:46;;;;;;;5.65;3.17;;;32.30;97.70;;;;;;5095918;28;20034;-54
2023/08/29 11:49:16;;;;;;;10.25;3.63;;;32.40;97.60;;;;;;5095698;28;20114;-51
2023/08/29 11:51:43;;;;;;;6.47;3.08;;;32.50;98.00;;;;;;5095553;28;20128;-53
2023/08/29 11:54:46;;;;;;;7.18;3.25;;;33.00;98.20;;;;;;5095291;28;20024;-54
2023/08/29 11:57:13;;;;;;;8.18;3.38;;;33.20;96.80;;;;;;5095094;28;20132;-55
2023/08/29 11:59:43;;;;;;;8.80;3.17;;;33.10;97.00;;;;;;5095587;28;20110;-52
2023/08/29 12:02:14;;;;;;;4.72;2.90;;;32.80;97.70;;;;;;5095549;28;20048;-54
2023/08/29 12:04:47;;;;;;;6.10;3.08;;;32.50;97.90;;;;;;5059801;28;20055;-51
2023/08/29 12:07:14;;;;;;;6.22;3.20;;;32.70;98.20;;;;;;5095104;28;20055;-54
2023/08/29 12:09:42;;;;;;;6.72;3.60;;;32.50;98.00;;;;;;5095104;28;20032;-54
2023/08/29 12:12:18;;;;;;;7.57;3.95;;;32.50;97.90;;;;;;5095369;28;20043;-53
2023/08/29 12:14:50;;;;;;;6.93;3.47;;;32.60;97.60;;;;;;5094960;28;20036;-51
2023/08/29 12:17:18;;;;;;;6.95;4.30;;;32.80;97.50;;;;;;5094758;28;20372;-53
2023/08/29 12:19:47;;;;;;;6.35;4.20;;;32.80;98.00;;;;;;5094752;28;20043;-52
2023/08/29 12:22:13;;;;;;;8.45;4.25;;;32.80;97.60;;;;;;5094672;28;20040;-51
2023/08/29 12:24:40;;;;;;;5.97;4.60;;;;;;;;;;5094859;28;20433;-54
2023/08/29 12:27:06;;;;;;;5.47;4.20;;;33.10;96.80;;;;;;5094510;28;20382;-55
2023/08/29 12:29:32;;;;;;;8.23;4.75;;;33.20;97.40;;;;;;5094563;28;20089;-55
2023/08/29 12:31:58;;;;;;;8.40;5.22;;;33.10;97.40;;;;;;5094590;28;20118;-54
2023/08/29 12:34:24;;;;;;;7.30;4.68;;;33.10;97.30;;;;;;5094807;28;20114;-55
2023/08/29 12:36:49;;;;;;;7.00;4.60;;;33.00;97.50;;;;;;5094492;28;20043;-55
2023/08/29 12:39:15;;;;;;;8.40;4.80;;;33.00;97.30;;;;;;5094299;28;20048;-53
2023/08/29 12:41:42;;;;;;;6.63;4.78;;;33.00;97.20;;;;;;5094197;28;20066;-53
2023/08/29 12:44:09;;;;;;;5.28;4.50;;;;;;;;;;5094663;28;20036;-54
2023/08/29 12:46:35;;;;;;;6.80;5.03;;;33.40;96.80;;;;;;5093619;28;20383;-54
2023/08/29 12:49:02;;;;;;;7.95;5.30;;;33.30;97.10;;;;;;5094607;28;20107;-53
2023/08/29 12:51:29;;;;;;;9.73;5.15;;;33.40;96.60;;;;;;5094523;28;20050;-55
2023/08/29 12:53:55;;;;;;;7.63;5.63;;;32.90;99.90;;;;;;5094720;28;20090;-53
2023/08/29 12:56:21;;;;;;;7.70;5.68;;;33.20;99.90;;;;;;5094376;28;20028;-55
2023/08/29 12:58:46;;;;;;;9.48;5.50;;;32.90;96.60;;;;;;5042440;28;20043;-54
2023/08/29 13:01:12;;;;;;;7.95;5.20;;;32.80;96.60;;;;;;5075308;28;20032;-55
2023/08/29 13:03:38;;;;;;;7.75;5.75;;;33.00;97.00;;;;;;5094044;28;20379;-52
2023/08/29 13:06:04;;;;;;;5.90;4.75;;;32.50;96.90;;;;;;5094061;28;20020;-54
2023/08/29 13:08:29;;;;;;;7.88;5.22;;;32.30;97.40;;;;;;5093949;28;20105;-52
2023/08/29 13:10:56;;;;;;;6.38;4.88;;;32.20;97.40;;;;;;5094031;28;20031;-51
2023/08/29 13:13:21;;;;;;;9.73;5.88;;;32.00;99.90;;;;;;5094345;28;20047;-54
2023/08/29 13:15:48;;;;;;;8.65;5.35;;;;;;;;;;4992189;28;20030;-54
2023/08/29 13:18:14;;;;;;;8.10;5.70;;;;;;;;;;4992218;28;20042;-55
2023/08/29 13:20:43;;;;;;;7.82;5.72;;;;;;;;;;4991768;28;20097;-55
2023/08/29 13:23:09;;;;;;;9.30;6.00;;;;;;;;;;4991621;28;20026;-53
2023/08/29 13:25:35;;;;;;;9.13;6.22;;;31.00;97.90;;;;;;4991924;28;20469;-55
2023/08/29 13:28:01;;;;;;;8.05;6.15;;;30.50;98.30;;;;;;4992014;28;20022;-54
2023/08/29 13:30:27;;;;;;;8.90;6.05;;;30.50;98.50;;;;;;4975638;28;20038;-56
2023/08/29 13:32:53;;;;;;;11.10;5.80;;;30.50;98.60;;;;;;4991979;28;20038;-52
2023/08/29 13:35:22;;;;;;;4.68;2.63;;;30.60;98.60;;;;;;4991826;28;20042;-55
2023/08/29 13:37:48;;;;;;;6.32;1.95;;;;;;;;;;4991101;28;20525;-53
2023/08/29 13:40:14;;;;;;;3.35;1.83;;;;;;;;;;4990522;28;20466;-51
2023/08/29 13:42:41;;;;;;;7.30;3.20;;;;;;;;;;4974020;28;20054;-53
2023/08/29 13:45:07;;;;;;;3.67;2.72;;;26.70;99.90;;;;;;4990509;28;20038;-52
2023/08/29 13:47:33;;;;;;;6.78;2.00;;;26.30;99.90;;;;;;5042479;28;20100;-56
2023/08/29 13:50:00;;;;;;;15.48;3.78;;;25.40;99.90;;;;;;5092241;28;20468;-54
2023/08/29 13:52:26;;;;;;;9.48;2.95;;;25.30;99.90;;;;;;5092194;28;20030;-52
2023/08/29 13:54:52;;;;;;;5.55;2.83;;;25.20;99.90;;;;;;5092215;28;20035;-53
2023/08/29 13:57:17;;;;;;;7.15;3.65;;;25.10;99.90;;;;;;5093409;28;20521;-54
2023/08/29 13:59:44;;;;;;;7.32;3.75;;;;;;;;;;5096446;28;20125;-56
2023/08/29 14:02:10;;;;;;;7.88;4.40;;;;;;;;;;5093687;28;20032;-55
2023/08/29 14:04:36;;;;;;;7.40;3.00;;;24.30;99.90;;;;;;5084732;28;20073;-52
2023/08/29 14:07:03;;;;;;;8.13;4.05;;;24.00;99.90;;;;;;5005931;28;20135;-54
2023/08/29 14:09:29;;;;;;;8.45;4.25;;;24.30;99.90;;;;;;5007835;28;20065;-52
2023/08/29 14:11:54;;;;;;;6.75;4.07;;;24.50;99.90;;;;;;5085760;28;20028;-56
2023/08/29 14:14:20;;;;;;;6.90;3.90;;;24.90;99.90;;;;;;5086080;28;20016;-55
2023/08/29 14:16:46;;;;;;;7.53;4.00;;;25.00;99.90;;;;;;5039933;28;20039;-53
2023/08/29 14:19:13;;;;;;;6.85;4.18;;;25.40;99.90;;;;;;5087123;28;20029;-54
2023/08/29 14:21:39;;;;;;;5.20;3.70;;;25.50;99.90;;;;;;5075821;28;20049;-54
2023/08/29 14:24:05;;;;;;;10.25;3.92;;;25.60;99.90;;;;;;5040237;28;20043;-56
2023/08/29 14:26:31;;;;;;;8.02;4.32;;;25.70;99.90;;;;;;5006917;28;20032;-57
2023/08/29 14:28:56;;;;;;;10.85;4.32;;;25.80;99.90;;;;;;5075901;28;20024;-54
2023/08/29 14:31:23;;;;;;;7.82;4.50;;;26.00;99.90;;;;;;5075442;28;20020;-55
2023/08/29 14:33:50;;;;;;;9.80;5.28;;;25.90;99.90;;;;;;5023512;28;20024;-55
2023/08/29 14:36:16;;;;;;;8.20;5.15;;;25.80;99.90;;;;;;5093606;28;20034;-52
2023/08/29 14:38:41;;;;;;;8.20;5.03;;;25.90;99.90;;;;;;5060172;28;20036;-54
2023/08/29 14:41:11;;;;;;;9.68;5.30;;;25.80;99.90;;;;;;5093872;28;20052;-54
2023/08/29 14:43:38;;;;;;;9.55;5.28;;;25.90;99.90;;;;;;5050174;28;20606;-56
2023/08/29 14:46:05;;;;;;;11.32;5.93;;;26.10;99.90;;;;;;5085197;28;20028;-54
2023/08/29 14:48:32;;;;;;;11.63;5.32;;;26.40;99.90;;;;;;5049688;28;20024;-52
2023/08/29 14:50:58;;;;;;;10.73;4.95;;;26.50;99.90;;;;;;5094908;28;20475;-55
2023/08/29 14:53:24;;;;;;;9.13;5.30;;;26.40;99.90;;;;;;5095630;28;20020;-54
2023/08/29 14:55:54;;;;;;;8.27;5.53;;;26.00;99.90;;;;;;5095604;28;20039;-54
2023/08/29 14:58:20;;;;;;;10.10;5.30;;;26.10;99.90;;;;;;5096277;28;20025;-54
2023/08/29 15:00:47;;;;;;;7.47;5.00;;;;;;;;;;5096293;28;20073;-53
2023/08/29 15:03:13;;;;;;;8.23;5.10;;;;;;;;;;5096534;28;20035;-57
2023/08/29 15:05:39;;;;;;;10.45;5.45;;;27.00;99.90;;;;;;5096067;28;20027;-55
2023/08/29 15:08:06;;;;;;;7.85;5.05;;;27.20;99.90;;;;;;5095905;28;20463;-52
2023/08/29 15:10:32;;;;;;;6.10;4.97;;;27.40;99.90;;;;;;5093077;28;20039;-53
2023/08/29 15:12:58;;;;;;;6.18;4.03;;;;;;;;;;5047861;28;20476;-54
2023/08/29 15:15:25;;;;;;;9.77;4.93;;;;;;;;;;5083460;28;20028;-57
2023/08/29 15:17:51;;;;;;;13.13;6.60;;;;;;;;;;5085838;28;20032;-53
2023/08/29 15:54:18;;;;;;;7.50;4.65;;;27.50;99.90;;;;;;5107227;27;1327477;-56
2023/08/29 15:56:44;;;;;;;7.10;5.10;;;27.10;99.90;;;;;;5131316;28;20059;-51
2023/08/29 15:59:09;;;;;;;6.45;4.55;;;27.40;99.90;;;;;;5093731;28;20035;-52
2023/08/29 16:01:35;;;;;;;4.70;4.20;;;27.10;99.90;;;;;;5086352;28;20035;-53
2023/08/29 16:04:01;;;;;;;6.40;4.78;;;27.10;99.90;;;;;;5130802;28;20026;-54
2023/08/29 16:06:27;;;;;;;7.40;5.20;;;27.40;99.90;;;;;;5130738;28;20020;-57
2023/08/29 16:08:52;;;;;;;8.43;4.63;;;27.60;99.90;;;;;;5086745;28;20032;-53
2023/08/29 16:11:19;;;;;;;6.03;4.40;;;27.70;99.90;;;;;;5130749;28;20026;-54
2023/08/29 16:13:45;;;;;;;5.32;4.63;;;28.00;99.90;;;;;;5076144;28;20464;-53
2023/08/29 16:16:11;;;;;;;5.95;4.70;;;27.50;99.90;;;;;;5130607;28;20027;-52
2023/08/29 16:18:37;;;;;;;8.52;4.43;;;27.40;99.90;;;;;;5131220;28;20390;-54
2023/08/29 16:21:03;;;;;;;5.35;4.10;;;27.20;99.90;;;;;;5067839;28;20483;-54
2023/08/29 16:23:30;;;;;;;7.72;4.32;;;27.40;99.90;;;;;;5067825;28;20384;-52
2023/08/29 16:25:58;;;;;;;7.43;4.43;;;27.20;99.90;;;;;;5067916;28;20488;-55
2023/08/29 16:28:25;;;;;;;5.70;3.97;;;26.90;99.90;;;;;;5067690;28;20119;-54
2023/08/29 16:30:51;;;;;;;7.40;4.50;;;26.80;99.90;;;;;;5067659;28;20067;-53
2023/08/29 16:33:17;;;;;;;5.70;4.75;;;26.90;99.90;;;;;;5034448;28;20060;-54
2023/08/29 16:35:43;;;;;;;6.55;4.18;;;27.00;99.90;;;;;;5050669;28;20176;-53
2023/08/29 16:38:09;;;;;;;7.43;4.93;;;26.90;99.90;;;;;;5067318;28;20036;-54
2023/08/29 16:40:35;;;;;;;11.15;6.32;;;26.90;99.90;;;;;;5067485;28;20472;-52
2023/08/29 16:43:01;;;;;;;21.23;14.02;;;26.90;99.90;;;;;;5067310;28;20060;-52
2023/08/29 16:45:27;;;;;;;18.75;12.13;;;26.70;99.90;;;;;;5067263;28;20060;-56
2023/08/29 16:47:55;;;;;;;11.48;9.23;;;26.80;99.90;;;;;;5067247;28;20055;-56
2023/08/29 16:50:21;;;;;;;10.43;8.18;;;26.60;99.90;;;;;;5067284;28;20404;-54
2023/08/29 16:52:46;;;;;;;10.32;7.75;;;26.40;99.90;;;;;;5118467;28;20131;-53
2023/08/29 16:55:12;;;;;;;11.43;7.38;;;26.20;99.90;;;;;;5117721;28;20059;-56
2023/08/29 16:57:38;;;;;;;22.42;15.10;;;26.20;99.90;;;;;;5116448;28;20023;-57
2023/08/29 17:00:09;;;;;;;8.93;6.13;;;26.20;99.90;;;;;;5081051;28;20081;-54
2023/08/29 17:02:36;;;;;;;9.63;6.03;;;26.10;99.90;;;;;;5116468;28;20067;-52
2023/08/29 17:05:01;;;;;;;7.53;5.47;;;25.80;99.90;;;;;;5081289;28;20035;-53
2023/08/29 17:07:27;;;;;;;10.80;6.57;;;25.70;99.90;;;;;;5116271;28;20034;-54
2023/08/29 17:09:53;;;;;;;10.85;6.03;;;25.50;99.90;;;;;;5116566;28;20020;-52
2023/08/29 17:12:21;;;;;;;12.48;6.07;;;25.40;99.90;;;;;;5116728;28;20172;-54
2023/08/29 17:14:49;;;;;;;8.52;6.18;;;25.30;99.90;;;;;;5113215;28;20056;-53
2023/08/29 17:17:15;;;;;;;9.07;5.88;;;25.30;99.90;;;;;;5116668;28;20016;-52
2023/08/29 17:19:41;;;;;;;10.50;5.88;;;25.20;99.90;;;;;;5080364;28;20035;-55
2023/08/29 17:22:07;;;;;;;9.95;6.18;;;25.10;99.90;;;;;;5116315;28;20036;-55
2023/08/29 17:24:33;;;;;;;8.50;5.80;;;24.80;99.90;;;;;;5116018;28;20031;-53
2023/08/29 17:26:59;;;;;;;9.88;6.30;;;24.60;99.90;;;;;;5116127;28;20020;-56
2023/08/29 17:29:25;;;;;;;7.88;5.97;;;24.40;99.90;;;;;;5116030;28;20020;-56
2023/08/29 17:31:51;;;;;;;8.10;5.72;;;;;;;;;;5068872;28;20071;-53
2023/08/29 17:34:17;;;;;;;7.63;6.20;;;24.40;99.90;;;;;;5063721;28;20067;-53
2023/08/29 17:36:43;;;;;;;6.70;5.15;;;;;;;;;;5115814;28;20095;-54
2023/08/29 17:39:11;;;;;;;7.43;5.32;;;24.00;99.90;;;;;;5063831;28;20039;-55
2023/08/29 17:41:38;;;;;;;7.75;6.05;;;;;;;;;;5115771;28;20036;-52
2023/08/29 17:44:04;;;;;;;10.88;6.78;;;24.10;99.90;;;;;;5115943;28;20031;-54
2023/08/29 17:46:30;;;;;;;7.57;5.82;;;;;;;;;;5115758;28;20023;-54
2023/08/29 17:48:56;;;;;;;9.80;6.20;;;;;;;;;;5115558;28;20032;-56
2023/08/29 17:51:22;;;;;;;7.70;6.05;;;24.00;99.90;;;;;;5115763;28;20077;-55
2023/08/29 17:53:48;;;;;;;7.72;5.75;;;24.00;99.90;;;;;;5115748;28;20389;-56
2023/08/29 17:56:14;;;;;;;11.20;6.15;;;;;;;;;;5115438;28;20386;-53
2023/08/29 17:58:40;;;;;;;8.90;6.10;;;23.90;99.90;;;;;;5115360;28;20023;-54
2023/08/29 18:01:06;;;;;;;5.95;5.28;;;23.80;99.90;;;;;;5115457;28;20024;-51
2023/08/29 18:03:32;;;;;;;12.23;6.82;;;23.60;99.90;;;;;;5115621;28;20039;-54
2023/08/29 18:05:58;;;;;;;9.32;5.22;;;23.40;99.90;;;;;;5114767;28;20035;-52
2023/08/29 18:08:25;;;;;;;9.18;6.22;;;23.20;99.90;;;;;;5115295;28;20031;-55
2023/08/29 18:10:52;;;;;;;9.85;7.35;;;23.30;99.90;;;;;;5115074;28;20020;-53
2023/08/29 18:13:18;;;;;;;10.57;6.95;;;23.20;99.90;;;;;;5115127;28;20023;-53
2023/08/29 18:15:45;;;;;;;9.27;7.10;;;23.20;99.90;;;;;;5115018;28;20038;-52
2023/08/29 18:18:22;;;;;;;10.10;6.43;;;23.20;99.90;;;;;;5115052;28;20036;-53
2023/08/29 18:21:08;;;;;;;9.93;6.70;;;23.20;99.90;;;;;;5052181;28;20539;-56
2023/08/29 18:23:34;;;;;;;10.93;6.85;;;23.20;99.90;;;;;;5051687;28;20443;-54
2023/08/29 18:26:04;;;;;;;12.43;7.45;;;23.10;99.90;;;;;;5052192;28;20574;-52
2023/08/29 18:28:31;;;;;;;9.52;6.63;;;23.10;99.90;;;;;;5020063;28;20037;-53
2023/08/29 18:30:57;;;;;;;10.27;7.57;;;23.20;99.90;;;;;;5051992;28;20029;-55
2023/08/29 18:33:23;;;;;;;8.15;6.45;;;23.40;99.90;;;;;;5052091;28;20099;-55
2023/08/29 18:35:49;;;;;;;11.07;7.53;;;23.50;99.90;;;;;;5052265;28;20453;-52
2023/08/29 18:38:15;;;;;;;9.98;7.45;;;;;;;;;;5051864;28;20033;-53
2023/08/29 18:40:42;;;;;;;7.97;7.18;;;23.60;99.90;;;;;;5051957;28;20051;-53
2023/08/29 18:43:12;;;;;;;9.63;7.07;;;23.40;99.90;;;;;;5051920;28;20041;-56
2023/08/29 18:45:38;;;;;;;10.07;6.53;;;;;;;;;;5051899;28;20036;-55
2023/08/29 18:48:04;;;;;;;8.25;6.72;;;22.90;99.90;;;;;;5051851;28;20036;-52
2023/08/29 18:50:30;;;;;;;9.93;7.68;;;22.90;99.90;;;;;;5051776;28;20431;-55
2023/08/29 18:52:56;;;;;;;10.93;7.93;;;23.00;99.90;;;;;;5051471;28;20132;-54
2023/08/29 18:55:22;;;;;;;9.50;8.18;;;23.20;99.90;;;;;;5051805;28;20104;-55
2023/08/29 18:57:48;;;;;;;13.07;8.15;;;23.30;99.90;;;;;;5059451;28;20028;-53
2023/08/29 19:00:15;;;;;;;13.38;8.00;;;23.20;99.90;;;;;;5094022;28;20081;-52
2023/08/29 19:02:42;;;;;;;9.20;8.15;;;23.00;99.90;;;;;;5093768;28;20032;-54
2023/08/29 19:05:10;;;;;;;10.80;8.52;;;23.00;99.90;;;;;;5093736;28;20027;-54
2023/08/29 19:07:37;;;;;;;11.05;8.55;;;23.10;99.90;;;;;;5094243;28;20047;-55
2023/08/29 19:10:03;;;;;;;11.30;8.25;;;;;;;;;;5041605;28;20122;-53
2023/08/29 19:12:30;;;;;;;14.73;8.63;;;23.60;99.90;;;;;;5093607;28;20032;-55
2023/08/29 19:14:58;;;;;;;12.35;8.77;;;23.60;99.90;;;;;;5094045;28;20032;-51
2023/08/29 19:17:25;;;;;;;13.85;9.27;;;23.60;99.90;;;;;;5093348;28;20028;-53
2023/08/29 19:19:51;;;;;;;13.05;8.93;;;;;;;;;;5093714;28;20077;-55
2023/08/29 19:22:17;;;;;;;11.98;8.68;;;;;;;;;;5093531;28;20035;-56
2023/08/29 19:24:43;;;;;;;13.70;8.32;;;;;;;;;;5093545;28;20035;-57
2023/08/29 19:27:09;;;;;;;11.90;8.10;;;;;;;;;;5093493;28;20036;-53